Res La Ceiba, Puerto Rico
Current Conditions -  °F | °C
As of 2:53 PM on Friday 28 Nov 2014 (Local Time) from TJNR Reporting Station
Broken Clouds Broken Clouds  
Wind Chill: 83°   Ceiling: 3600
Heat Index: 87°   Visibility: 10mi
Dew Point: 70°   Wind: 6mph
Humidity: 65%   Direction: 100°E
Pressure: 29.94"   Gusts: NA
Location:  18.2667°N, 65.6476°W
Report Text: TJNR 281853Z AUTO 10005KT 10SM FEW028 BKN036 28/21 A2994 RMK AO2 SLP138 T02830211 $
Loading
Personal Weather Stations






























Interactive Weather Map New forecast layout! Learn more

10-Day Weather Forecast

Advertisements
Track Severe Weather on mobile